Time;durP1;ratioP1;P1;durP2;ratioP2;P2;SDS_P1;SDS_P2;PMS_P1;PMS_P2;Temp;Humidity;BMP_temperature;BMP_pressure;BME280_temperature;BME280_humidity;BME280_pressure;Samples;Min_cycle;Max_cycle;Signal;HPM_P1;HPM_P2
2023/08/17 00:01:48;;;;;;;13.40;11.30;;;;;;;-128.00;-1.00;-1.00;18890;295;7504952;-36
2023/08/17 00:04:15;;;;;;;19.40;14.00;;;;;;;-128.00;-1.00;-1.00;18870;297;7504595;-35
2023/08/17 00:06:41;;;;;;;13.10;11.70;;;;;;;-128.00;-1.00;-1.00;18871;295;7504985;-32
2023/08/17 00:09:07;;;;;;;16.30;12.50;;;;;;;-128.00;-1.00;-1.00;18864;316;7504657;-36
2023/08/17 00:11:33;;;;;;;14.40;11.90;;;;;;;-128.00;-1.00;-1.00;18876;295;7505220;-33
2023/08/17 00:13:59;;;;;;;14.80;13.20;;;;;;;-128.00;-1.00;-1.00;18900;335;7505135;-35
2023/08/17 00:16:27;;;;;;;15.70;12.50;;;;;;;-128.00;-1.00;-1.00;18447;295;7504685;-35
2023/08/17 00:18:53;;;;;;;13.10;11.70;;;;;;;-128.00;-1.00;-1.00;18478;294;7505821;-36
2023/08/17 00:21:18;;;;;;;11.50;10.50;;;;;;;-128.00;-1.00;-1.00;18492;295;7504767;-32
2023/08/17 00:23:44;;;;;;;13.20;11.90;;;;;;;-128.00;-1.00;-1.00;18477;295;7504680;-35
2023/08/17 00:26:10;;;;;;;17.00;14.00;;;;;;;-128.00;-1.00;-1.00;18867;295;7505320;-32
2023/08/17 00:28:37;;;;;;;13.90;11.20;;;;;;;-128.00;-1.00;-1.00;18912;335;7505119;-31
2023/08/17 00:31:03;;;;;;;15.60;12.20;;;;;;;-128.00;-1.00;-1.00;18860;295;7504930;-31
2023/08/17 00:33:29;;;;;;;14.60;9.80;;;;;;;-128.00;-1.00;-1.00;18478;295;7504703;-32
2023/08/17 00:35:55;;;;;;;16.90;15.30;;;;;;;-128.00;-1.00;-1.00;18867;311;7505040;-37
2023/08/17 01:17:54;;;;;;;12.50;5.00;;;;;;;-98.46;19.20;19924.40;19573;335;8045634;-33
2023/08/17 01:20:20;;;;;;;4.60;4.30;;;;;;;-128.00;-1.00;-1.00;18096;296;7506606;-36
2023/08/17 01:22:49;;;;;;;9.00;5.80;;;;;;;-128.00;-1.00;-1.00;18504;294;7504274;-36
2023/08/17 01:25:15;;;;;;;10.00;6.00;;;;;;;-128.00;-1.00;-1.00;18441;294;7506238;-32
2023/08/17 01:27:42;;;;;;;7.10;6.60;;;;;;;-128.00;-1.00;-1.00;18457;295;7506010;-33
2023/08/17 01:30:08;;;;;;;10.20;7.40;;;;;;;-128.00;-1.00;-1.00;18484;347;7506009;-36
2023/08/17 01:32:39;;;;;;;8.20;5.80;;;;;;;-128.00;-1.00;-1.00;18517;294;7504664;-33
2023/08/17 01:35:11;;;;;;;5.60;5.20;;;;;;;-128.00;-1.00;-1.00;18476;318;7504668;-32
2023/08/17 01:37:37;;;;;;;5.40;4.80;;;;;;;-128.00;-1.00;-1.00;18484;294;7506244;-33
2023/08/17 01:40:04;;;;;;;7.30;5.80;;;;;;;-128.00;-1.00;-1.00;18502;294;7504767;-33
2023/08/17 01:42:30;;;;;;;6.60;5.10;;;;;;;-128.00;-1.00;-1.00;18477;294;7505091;-32
2023/08/17 01:44:56;;;;;;;5.60;4.50;;;;;;;-128.00;-1.00;-1.00;18865;318;7505218;-33
2023/08/17 01:47:22;;;;;;;5.40;3.60;;;;;;;-128.00;-1.00;-1.00;18872;294;7504645;-33
2023/08/17 01:49:49;;;;;;;4.30;3.50;;;;;;;-128.00;-1.00;-1.00;18487;294;7504698;-33
2023/08/17 01:52:15;;;;;;;8.00;3.50;;;;;;;-128.00;-1.00;-1.00;18466;347;7504392;-33
2023/08/17 01:54:40;;;;;;;5.60;4.70;;;;;;;-128.00;-1.00;-1.00;18507;294;7504907;-32
2023/08/17 01:57:06;;;;;;;8.50;3.30;;;;;;;-128.00;-1.00;-1.00;18530;294;7506101;-32
2023/08/17 01:59:51;;;;;;;5.90;4.30;;;;;;;-128.00;-1.00;-1.00;18481;334;7505636;-36
2023/08/17 02:02:31;;;;;;;5.10;4.40;;;;;;;-128.00;-1.00;-1.00;18503;294;7505785;-36
2023/08/17 02:04:57;;;;;;;3.50;3.20;;;;;;;-128.00;-1.00;-1.00;18488;295;7504593;-32
2023/08/17 02:07:23;;;;;;;4.30;4.00;;;;;;;-128.00;-1.00;-1.00;18860;295;7504409;-32
2023/08/17 02:09:49;;;;;;;4.10;3.80;;;;;;;-128.00;-1.00;-1.00;18887;294;7504677;-36
2023/08/17 02:12:16;;;;;;;6.90;4.00;;;;;;;-128.00;-1.00;-1.00;18493;294;7505113;-36
2023/08/17 02:14:42;;;;;;;4.20;3.50;;;;;;;-128.00;-1.00;-1.00;18883;294;7508071;-32
2023/08/17 02:17:09;;;;;;;16.00;4.10;;;;;;;-128.00;-1.00;-1.00;18868;307;7506077;-32
2023/08/17 02:19:34;;;;;;;4.10;3.70;;;;;;;-128.00;-1.00;-1.00;18499;295;7504791;-33
2023/08/17 02:22:01;;;;;;;6.00;2.50;;;;;;;-128.00;-1.00;-1.00;18467;295;7506115;-36
2023/08/17 02:24:27;;;;;;;4.20;3.80;;;;;;;-128.00;-1.00;-1.00;18472;295;7506227;-32
2023/08/17 02:26:52;;;;;;;5.00;4.60;;;;;;;-128.00;-1.00;-1.00;18489;347;7504286;-32
2023/08/17 02:29:18;;;;;;;4.60;4.20;;;;;;;-128.00;-1.00;-1.00;18487;287;7505619;-33
2023/08/17 02:31:44;;;;;;;7.50;4.60;;;;;;;-128.00;-1.00;-1.00;18884;348;7504374;-33
2023/08/17 02:34:10;;;;;;;6.80;5.60;;;;;;;-128.00;-1.00;-1.00;18860;295;7505037;-36
2023/08/17 02:36:36;;;;;;;5.90;3.90;;;;;;;-128.00;-1.00;-1.00;18883;335;7505719;-32
2023/08/17 02:39:03;;;;;;;4.70;3.70;;;;;;;-128.00;-1.00;-1.00;18871;295;7505372;-36
2023/08/17 02:41:31;;;;;;;5.60;5.00;;;;;;;-128.00;-1.00;-1.00;18891;295;7504898;-33
2023/08/17 02:43:57;;;;;;;8.10;5.60;;;;;;;-128.00;-1.00;-1.00;18480;339;7505063;-33
2023/08/17 02:46:23;;;;;;;6.70;3.60;;;;;;;-128.00;-1.00;-1.00;18466;295;7504145;-35
2023/08/17 02:48:51;;;;;;;4.50;4.10;;;;;;;-128.00;-1.00;-1.00;18463;295;7504701;-32
2023/08/17 02:51:16;;;;;;;4.50;4.10;;;;;;;-128.00;-1.00;-1.00;18479;306;7505758;-32
2023/08/17 02:53:42;;;;;;;6.20;4.70;;;;;;;-128.00;-1.00;-1.00;18883;295;7504278;-32
2023/08/17 02:56:11;;;;;;;5.80;5.30;;;;;;;-128.00;-1.00;-1.00;18883;295;7504441;-36
2023/08/17 02:58:50;;;;;;;9.50;3.80;;;;;;;-128.00;-1.00;-1.00;18468;295;7504681;-36
2023/08/17 03:01:29;;;;;;;4.40;3.90;;;;;;;-128.00;-1.00;-1.00;18441;295;7505189;-35
2023/08/17 03:04:08;;;;;;;7.50;6.70;;;;;;;-128.00;-1.00;-1.00;18473;295;7505108;-35
2023/08/17 03:06:34;;;;;;;4.70;4.30;;;;;;;-128.00;-1.00;-1.00;18899;295;7504611;-35
2023/08/17 03:09:00;;;;;;;6.60;5.90;;;;;;;-128.00;-1.00;-1.00;18880;295;7504754;-32
2023/08/17 03:11:26;;;;;;;6.20;5.40;;;;;;;-128.00;-1.00;-1.00;18874;295;7505216;-36
2023/08/17 03:13:55;;;;;;;11.30;6.90;;;;;;;-128.00;-1.00;-1.00;18869;306;7505195;-32
2023/08/17 03:16:21;;;;;;;8.90;4.90;;;;;;;-128.00;-1.00;-1.00;18477;295;7505026;-31
2023/08/17 03:18:48;;;;;;;7.40;6.80;;;;;;;-128.00;-1.00;-1.00;18506;295;7506145;-35
2023/08/17 03:21:13;;;;;;;10.80;7.20;;;;;;;-128.00;-1.00;-1.00;18498;295;7504346;-31
2023/08/17 03:23:39;;;;;;;9.50;7.30;;;;;;;-128.00;-1.00;-1.00;18893;306;7504759;-31
2023/08/17 03:26:06;;;;;;;16.30;5.40;;;;;;;-128.00;-1.00;-1.00;18861;295;7505572;-35
2023/08/17 03:28:32;;;;;;;7.00;5.90;;;;;;;-128.00;-1.00;-1.00;18864;295;7504636;-33
2023/08/17 03:30:58;;;;;;;11.90;6.50;;;;;;;-128.00;-1.00;-1.00;18863;295;7505685;-35
2023/08/17 03:33:24;;;;;;;7.40;6.80;;;;;;;-128.00;-1.00;-1.00;18872;295;7504126;-35
2023/08/17 03:35:50;;;;;;;6.10;5.00;;;;;;;-128.00;-1.00;-1.00;18887;306;7504494;-35
2023/08/17 03:38:16;;;;;;;5.90;5.40;;;;;;;-128.00;-1.00;-1.00;18883;335;7504688;-31
2023/08/17 03:40:43;;;;;;;6.20;5.60;;;;;;;-128.00;-1.00;-1.00;18886;295;7505321;-33
2023/08/17 03:43:09;;;;;;;7.20;4.90;;;;;;;-128.00;-1.00;-1.00;18894;295;7505094;-35
2023/08/17 03:45:35;;;;;;;6.50;4.90;;;;;;;-128.00;-1.00;-1.00;18865;296;7504709;-35
2023/08/17 03:48:01;;;;;;;7.80;6.40;;;;;;;-128.00;-1.00;-1.00;18883;295;7505474;-36
2023/08/17 03:50:28;;;;;;;8.60;4.60;;;;;;;-128.00;-1.00;-1.00;18887;294;7505317;-36
2023/08/17 03:52:54;;;;;;;6.00;5.20;;;;;;;-128.00;-1.00;-1.00;18889;312;7504741;-35
2023/08/17 03:55:20;;;;;;;5.20;4.70;;;;;;;-128.00;-1.00;-1.00;18901;295;7504743;-36
2023/08/17 03:57:46;;;;;;;9.20;5.50;;;;;;;-128.00;-1.00;-1.00;18881;295;7504406;-32
2023/08/17 04:00:13;;;;;;;6.00;4.90;;;;;;;-128.00;-1.00;-1.00;18853;295;7504915;-32
2023/08/17 04:02:39;;;;;;;5.10;4.60;;;;;;;-128.00;-1.00;-1.00;18865;287;7506477;-33
2023/08/17 04:05:35;;;;;;;5.30;4.90;;;;;;;-128.00;-1.00;-1.00;18488;295;7504820;-32
2023/08/17 04:08:02;;;;;;;4.20;3.80;;;;;;;-128.00;-1.00;-1.00;18473;295;7504335;-32
2023/08/17 04:10:31;;;;;;;6.70;6.20;;;;;;;-128.00;-1.00;-1.00;18497;303;7506474;-36
2023/08/17 04:12:57;;;;;;;5.70;4.00;;;;;;;-128.00;-1.00;-1.00;18461;295;7504748;-36
2023/08/17 04:15:22;;;;;;;8.80;5.40;;;;;;;-128.00;-1.00;-1.00;18494;295;7504565;-36
2023/08/17 04:17:48;;;;;;;5.60;4.70;;;;;;;-128.00;-1.00;-1.00;18498;295;7505304;-36
2023/08/17 04:20:14;;;;;;;5.90;3.50;;;;;;;-128.00;-1.00;-1.00;18444;295;7505770;-36
2023/08/17 04:22:40;;;;;;;7.60;5.30;;;;;;;-128.00;-1.00;-1.00;18467;295;7505800;-36
2023/08/17 04:25:07;;;;;;;4.90;4.50;;;;;;;-128.00;-1.00;-1.00;18460;295;7504704;-32
2023/08/17 04:27:33;;;;;;;7.20;5.00;;;;;;;-128.00;-1.00;-1.00;18496;295;7505805;-36
2023/08/17 04:30:00;;;;;;;6.20;5.00;;;;;;;-128.00;-1.00;-1.00;18478;335;7506478;-32
2023/08/17 04:32:25;;;;;;;11.00;5.70;;;;;;;-128.00;-1.00;-1.00;18483;295;7505177;-32
2023/08/17 04:34:51;;;;;;;8.80;6.30;;;;;;;-128.00;-1.00;-1.00;18871;339;7504811;-38
2023/08/17 04:37:18;;;;;;;9.70;5.30;;;;;;;-128.00;-1.00;-1.00;18869;295;7505346;-36
2023/08/17 04:39:44;;;;;;;8.00;6.90;;;;;;;-128.00;-1.00;-1.00;18913;295;7504823;-35
2023/08/17 04:42:10;;;;;;;6.20;5.70;;;;;;;-128.00;-1.00;-1.00;18518;295;7506447;-36
2023/08/17 04:44:36;;;;;;;8.70;7.60;;;;;;;-128.00;-1.00;-1.00;18475;295;7505083;-32
2023/08/17 04:47:02;;;;;;;16.40;8.40;;;;;;;-128.00;-1.00;-1.00;18492;295;7506258;-36
2023/08/17 04:49:28;;;;;;;9.90;7.40;;;;;;;-128.00;-1.00;-1.00;18844;295;7504601;-36
2023/08/17 04:51:54;;;;;;;11.20;7.00;;;;;;;-128.00;-1.00;-1.00;18902;314;7504311;-36
2023/08/17 04:54:20;;;;;;;9.40;7.30;;;;;;;-128.00;-1.00;-1.00;18856;298;7504260;-32
2023/08/17 04:56:46;;;;;;;13.00;6.50;;;;;;;-128.00;-1.00;-1.00;18891;295;7505576;-37
2023/08/17 04:59:13;;;;;;;5.20;3.80;;;;;;;-128.00;-1.00;-1.00;18862;295;7504821;-33
2023/08/17 05:01:40;;;;;;;6.70;3.50;;;;;;;-128.00;-1.00;-1.00;18460;295;7505994;-36
2023/08/17 05:04:07;;;;;;;4.70;4.20;;;;;;;-128.00;-1.00;-1.00;18474;295;7505684;-32
2023/08/17 05:06:33;;;;;;;13.50;4.30;;;;;;;-128.00;-1.00;-1.00;18508;347;7504712;-33
2023/08/17 05:08:59;;;;;;;6.30;5.30;;;;;;;-128.00;-1.00;-1.00;18468;295;7504765;-32
2023/08/17 05:11:25;;;;;;;5.80;5.30;;;;;;;-128.00;-1.00;-1.00;18462;295;7505515;-36
2023/08/17 05:13:50;;;;;;;3.90;3.60;;;;;;;-128.00;-1.00;-1.00;18491;295;7505233;-32
2023/08/17 05:16:16;;;;;;;4.50;4.10;;;;;;;-128.00;-1.00;-1.00;18471;318;7504185;-35
2023/08/17 05:18:42;;;;;;;8.20;5.30;;;;;;;-128.00;-1.00;-1.00;18872;295;7504378;-36
2023/08/17 05:21:08;;;;;;;6.20;3.80;;;;;;;-128.00;-1.00;-1.00;18861;347;7504723;-32
2023/08/17 05:23:35;;;;;;;4.40;3.90;;;;;;;-128.00;-1.00;-1.00;18461;295;7505968;-31
2023/08/17 05:26:01;;;;;;;6.60;4.80;;;;;;;-128.00;-1.00;-1.00;18896;294;7504403;-32
2023/08/17 05:28:27;;;;;;;5.90;5.40;;;;;;;-128.00;-1.00;-1.00;18883;295;7504705;-35
2023/08/17 05:30:53;;;;;;;6.00;4.50;;;;;;;-128.00;-1.00;-1.00;18871;295;7504743;-31
2023/08/17 05:33:19;;;;;;;4.60;4.00;;;;;;;-128.00;-1.00;-1.00;18873;306;7504490;-35
2023/08/17 05:35:45;;;;;;;8.50;5.10;;;;;;;-128.00;-1.00;-1.00;18875;294;7504294;-36
2023/08/17 05:38:12;;;;;;;7.70;4.70;;;;;;;-128.00;-1.00;-1.00;18890;295;7504779;-36
2023/08/17 05:40:38;;;;;;;7.20;5.10;;;;;;;-128.00;-1.00;-1.00;18894;295;7506384;-33
2023/08/17 05:43:04;;;;;;;4.70;4.10;;;;;;;-128.00;-1.00;-1.00;18909;295;7504423;-33
2023/08/17 05:45:31;;;;;;;5.70;5.10;;;;;;;-128.00;-1.00;-1.00;18895;295;7505208;-37
2023/08/17 05:47:57;;;;;;;4.70;4.10;;;;;;;-128.00;-1.00;-1.00;18446;295;7504639;-33
2023/08/17 05:50:23;;;;;;;6.30;5.00;;;;;;;-128.00;-1.00;-1.00;18883;295;7505128;-37
2023/08/17 05:52:49;;;;;;;5.20;4.40;;;;;;;-128.00;-1.00;-1.00;18862;339;7504390;-36
2023/08/17 05:55:15;;;;;;;4.50;4.00;;;;;;;-128.00;-1.00;-1.00;18867;318;7504479;-35
2023/08/17 05:57:42;;;;;;;5.00;4.60;;;;;;;-128.00;-1.00;-1.00;18896;295;7505414;-36
2023/08/17 06:00:12;;;;;;;6.70;6.10;;;;;;;-128.00;-1.00;-1.00;18872;295;7504981;-35
2023/08/17 06:02:38;;;;;;;3.60;3.30;;;;;;;-128.00;-1.00;-1.00;18485;295;7504703;-32
2023/08/17 06:05:04;;;;;;;4.80;4.20;;;;;;;-128.00;-1.00;-1.00;18480;295;7506671;-35
2023/08/17 06:07:30;;;;;;;10.20;4.60;;;;;;;-128.00;-1.00;-1.00;18469;297;7504637;-32
2023/08/17 06:09:55;;;;;;;3.20;2.90;;;;;;;-128.00;-1.00;-1.00;18488;287;7504950;-32
2023/08/17 06:12:21;;;;;;;6.20;4.00;;;;;;;-128.00;-1.00;-1.00;18893;295;7504462;-32
2023/08/17 06:14:48;;;;;;;5.30;4.50;;;;;;;-128.00;-1.00;-1.00;18884;295;7505120;-35
2023/08/17 06:17:17;;;;;;;6.20;4.00;;;;;;;-128.00;-1.00;-1.00;18498;295;7506254;-35
2023/08/17 06:19:43;;;;;;;5.60;4.50;;;;;;;-128.00;-1.00;-1.00;18503;295;7504311;-35
2023/08/17 06:22:09;;;;;;;3.20;2.40;;;;;;;-128.00;-1.00;-1.00;18475;295;7505517;-35
2023/08/17 06:24:48;;;;;;;3.80;3.10;;;;;;;-128.00;-1.00;-1.00;18470;295;7505754;-35
2023/08/17 06:27:27;;;;;;;2.70;2.40;;;;;;;-128.00;-1.00;-1.00;18471;295;7505360;-32
2023/08/17 06:30:06;;;;;;;2.80;2.50;;;;;;;-128.00;-1.00;-1.00;18481;318;7505169;-32
2023/08/17 06:32:45;;;;;;;1.90;1.80;;;;;;;-128.00;-1.00;-1.00;18480;295;7504938;-35
2023/08/17 06:35:24;;;;;;;5.70;5.20;;;;;;;-128.00;-1.00;-1.00;18469;295;7504624;-32
2023/08/17 06:38:03;;;;;;;9.60;6.70;;;;;;;-128.00;-1.00;-1.00;18457;330;7504601;-32
2023/08/17 06:40:42;;;;;;;8.90;6.70;;;;;;;-128.00;-1.00;-1.00;18474;294;7505362;-36
2023/08/17 06:43:21;;;;;;;9.10;6.20;;;;;;;-128.00;-1.00;-1.00;18462;310;7505208;-35
2023/08/17 06:45:56;;;;;;;9.10;7.80;;;;;;;-128.00;-1.00;-1.00;18497;295;7504709;-32
2023/08/17 06:48:35;;;;;;;6.10;5.30;;;;;;;-128.00;-1.00;-1.00;18473;295;7505372;-32
2023/08/17 06:51:14;;;;;;;11.10;4.80;;;;;;;-128.00;-1.00;-1.00;18480;336;7504701;-32
2023/08/17 06:53:51;;;;;;;16.20;5.40;;;;;;;-128.00;-1.00;-1.00;18495;295;7504694;-36
2023/08/17 06:56:30;;;;;;;9.00;8.10;;;;;;;-128.00;-1.00;-1.00;18486;287;7506452;-36
2023/08/17 06:59:09;;;;;;;2.40;2.20;;;;;;;-128.00;-1.00;-1.00;18465;339;7504815;-36
2023/08/17 07:01:48;;;;;;;5.00;4.50;;;;;;;-128.00;-1.00;-1.00;18480;347;7505093;-35
2023/08/17 07:04:27;;;;;;;9.20;6.20;;;;;;;-128.00;-1.00;-1.00;18454;300;7506887;-36
2023/08/17 07:07:06;;;;;;;17.00;7.50;;;;;;;-128.00;-1.00;-1.00;18482;295;7505016;-32
2023/08/17 07:09:43;;;;;;;11.70;9.10;;;;;;;-128.00;-1.00;-1.00;18493;295;7504567;-36
2023/08/17 07:12:27;;;;;;;9.00;7.00;;;;;;;-128.00;-1.00;-1.00;18450;318;7505384;-35
2023/08/17 07:15:06;;;;;;;4.50;4.10;;;;;;;-128.00;-1.00;-1.00;18516;310;7505747;-32
2023/08/17 07:17:36;;;;;;;5.20;4.70;;;;;;;-128.00;-1.00;-1.00;18504;302;7505356;-36
2023/08/17 07:20:16;;;;;;;8.30;5.60;;;;;;;-128.00;-1.00;-1.00;18467;295;7505147;-36
2023/08/17 07:22:55;;;;;;;6.20;5.60;;;;;;;-128.00;-1.00;-1.00;18480;302;7505012;-32
2023/08/17 07:25:34;;;;;;;20.30;6.00;;;;;;;-128.00;-1.00;-1.00;18479;295;7505272;-36
2023/08/17 07:28:14;;;;;;;5.70;4.70;;;;;;;-128.00;-1.00;-1.00;18517;295;7505106;-32
2023/08/17 07:30:54;;;;;;;6.00;3.70;;;;;;;-128.00;-1.00;-1.00;18463;295;7506133;-33
2023/08/17 07:33:28;;;;;;;7.80;5.50;;;;;;;-128.00;-1.00;-1.00;18485;295;7504842;-32
2023/08/17 07:36:07;;;;;;;5.50;5.00;;;;;;;-128.00;-1.00;-1.00;18467;295;7505130;-36
2023/08/17 07:38:46;;;;;;;10.60;6.00;;;;;;;-128.00;-1.00;-1.00;18476;295;7504862;-36
2023/08/17 07:41:21;;;;;;;6.10;3.70;;;;;;;-128.00;-1.00;-1.00;18478;295;7504256;-32
2023/08/17 07:44:00;;;;;;;9.00;5.40;;;;;;;-128.00;-1.00;-1.00;18492;295;7504865;-35
2023/08/17 07:46:39;;;;;;;5.60;5.10;;;;;;;-128.00;-1.00;-1.00;18494;335;7504565;-35
2023/08/17 07:49:18;;;;;;;6.60;5.90;;;;;;;-128.00;-1.00;-1.00;18468;295;7504440;-31
2023/08/17 07:51:57;;;;;;;6.80;4.90;;;;;;;-128.00;-1.00;-1.00;18521;295;7505468;-32
2023/08/17 07:54:36;;;;;;;5.30;3.70;;;;;;;-128.00;-1.00;-1.00;18468;314;7505362;-33
2023/08/17 07:57:11;;;;;;;4.40;4.00;;;;;;;-128.00;-1.00;-1.00;18462;295;7504970;-33
2023/08/17 07:59:51;;;;;;;8.30;6.60;;;;;;;-128.00;-1.00;-1.00;18483;295;7505118;-32
2023/08/17 08:02:30;;;;;;;12.50;7.10;;;;;;;-128.00;-1.00;-1.00;18482;295;7504042;-36
2023/08/17 08:05:06;;;;;;;5.10;4.70;;;;;;;-128.00;-1.00;-1.00;18451;347;7505423;-36
2023/08/17 08:07:45;;;;;;;6.00;5.50;;;;;;;-128.00;-1.00;-1.00;18451;295;7505093;-36
2023/08/17 08:10:24;;;;;;;5.50;5.00;;;;;;;-128.00;-1.00;-1.00;18485;295;7504876;-32
2023/08/17 08:13:03;;;;;;;5.90;5.40;;;;;;;-128.00;-1.00;-1.00;18441;322;7504838;-36
2023/08/17 08:15:42;;;;;;;7.20;6.10;;;;;;;-128.00;-1.00;-1.00;18482;295;7504387;-36
2023/08/17 08:18:21;;;;;;;6.20;5.70;;;;;;;-128.00;-1.00;-1.00;18492;318;7505979;-36
2023/08/17 08:20:57;;;;;;;6.50;5.90;;;;;;;-128.00;-1.00;-1.00;18483;295;7506292;-33
2023/08/17 08:23:36;;;;;;;5.10;4.30;;;;;;;-128.00;-1.00;-1.00;18471;310;7505112;-32
2023/08/17 08:26:15;;;;;;;11.10;6.00;;;;;;;-128.00;-1.00;-1.00;18470;295;7505468;-32
2023/08/17 08:28:54;;;;;;;5.50;5.00;;;;;;;-128.00;-1.00;-1.00;18459;295;7504859;-31
2023/08/17 08:31:33;;;;;;;6.40;4.20;;;;;;;-128.00;-1.00;-1.00;18462;295;7506494;-31
2023/08/17 08:34:12;;;;;;;6.30;5.60;;;;;;;-128.00;-1.00;-1.00;18444;295;7505446;-32
2023/08/17 08:36:51;;;;;;;17.40;4.50;;;;;;;-128.00;-1.00;-1.00;18466;335;7504818;-32
2023/08/17 08:39:30;;;;;;;5.20;4.80;;;;;;;-128.00;-1.00;-1.00;18456;295;7505606;-31
2023/08/17 08:42:09;;;;;;;4.90;4.50;;;;;;;-128.00;-1.00;-1.00;18467;347;7506072;-32
2023/08/17 08:44:42;;;;;;;5.90;5.50;;;;;;;-128.00;-1.00;-1.00;18479;294;7504701;-36
2023/08/17 08:47:21;;;;;;;10.70;5.60;;;;;;;-128.00;-1.00;-1.00;18501;295;7505219;-36
2023/08/17 08:50:02;;;;;;;7.50;6.90;;;;;;;-128.00;-1.00;-1.00;18500;295;7504933;-32
2023/08/17 08:52:42;;;;;;;7.70;6.00;;;;;;;-128.00;-1.00;-1.00;18481;295;7504829;-34
2023/08/17 08:55:21;;;;;;;8.00;5.60;;;;;;;-128.00;-1.00;-1.00;18455;295;7504739;-35
2023/08/17 08:58:00;;;;;;;7.00;6.40;;;;;;;-128.00;-1.00;-1.00;18468;295;7505798;-35
2023/08/17 09:00:39;;;;;;;7.50;5.30;;;;;;;-128.00;-1.00;-1.00;18497;295;7505258;-32
2023/08/17 09:03:20;;;;;;;6.60;5.80;;;;;;;-128.00;-1.00;-1.00;18463;295;7505058;-34
2023/08/17 09:05:59;;;;;;;7.20;5.40;;;;;;;-128.00;-1.00;-1.00;18482;295;7505120;-34
2023/08/17 09:08:38;;;;;;;7.50;6.80;;;;;;;-128.00;-1.00;-1.00;18476;346;7504901;-37
2023/08/17 09:11:17;;;;;;;6.40;5.80;;;;;;;-128.00;-1.00;-1.00;18487;287;7505164;-36
2023/08/17 09:13:55;;;;;;;6.80;6.10;;;;;;;-128.00;-1.00;-1.00;18482;295;7506203;-37
2023/08/17 09:16:34;;;;;;;5.60;5.20;;;;;;;-128.00;-1.00;-1.00;18489;295;7504996;-36
2023/08/17 09:19:13;;;;;;;5.50;5.10;;;;;;;-128.00;-1.00;-1.00;18478;295;7505487;-33
2023/08/17 09:21:52;;;;;;;6.80;6.10;;;;;;;-128.00;-1.00;-1.00;18033;295;7506814;-37
2023/08/17 09:24:35;;;;;;;15.90;5.40;;;;;;;-128.00;-1.00;-1.00;18475;291;7504972;-33
2023/08/17 09:27:14;;;;;;;10.10;8.20;;;;;;;-128.00;-1.00;-1.00;18469;339;7505284;-33
2023/08/17 09:30:00;;;;;;;6.20;5.70;;;;;;;-128.00;-1.00;-1.00;18442;295;7504907;-36
2023/08/17 09:32:32;;;;;;;7.50;6.20;;;;;;;-128.00;-1.00;-1.00;18452;295;7506384;-36
2023/08/17 09:35:11;;;;;;;9.60;7.40;;;;;;;-128.00;-1.00;-1.00;18486;295;7506039;-36
2023/08/17 09:37:45;;;;;;;5.20;4.80;;;;;;;-128.00;-1.00;-1.00;18489;295;7504797;-36
2023/08/17 09:40:26;;;;;;;6.70;6.10;;;;;;;-128.00;-1.00;-1.00;18489;295;7505055;-32
2023/08/17 09:43:05;;;;;;;5.10;4.30;;;;;;;-128.00;-1.00;-1.00;18484;339;7505114;-35
2023/08/17 09:45:47;;;;;;;7.70;6.80;;;;;;;-128.00;-1.00;-1.00;18450;335;7504393;-35
2023/08/17 09:48:26;;;;;;;10.50;7.60;;;;;;;-128.00;-1.00;-1.00;18450;347;7505757;-36
2023/08/17 09:51:05;;;;;;;7.50;6.80;;;;;;;-128.00;-1.00;-1.00;18481;295;7505498;-32
2023/08/17 09:53:51;;;;;;;4.80;4.30;;;;;;;-128.00;-1.00;-1.00;18489;295;7504235;-35
2023/08/17 09:56:30;;;;;;;7.30;6.80;;;;;;;-128.00;-1.00;-1.00;18468;294;7506239;-32
2023/08/17 09:59:09;;;;;;;6.30;5.80;;;;;;;-128.00;-1.00;-1.00;18454;339;7505546;-32
2023/08/17 10:01:37;;;;;;;4.30;3.90;;;;;;;-128.00;-1.00;-1.00;18492;295;7504520;-32
2023/08/17 10:04:25;;;;;;;7.40;5.60;;;;;;;-128.00;-1.00;-1.00;18475;295;7505592;-36
2023/08/17 10:07:04;;;;;;;4.80;4.10;;;;;;;-128.00;-1.00;-1.00;18499;295;7504222;-36
2023/08/17 10:09:43;;;;;;;5.40;4.60;;;;;;;-128.00;-1.00;-1.00;18471;335;7505147;-32
2023/08/17 10:12:23;;;;;;;4.30;4.00;;;;;;;-128.00;-1.00;-1.00;18475;295;7505061;-36
2023/08/17 10:15:03;;;;;;;7.40;3.40;;;;;;;-128.00;-1.00;-1.00;18462;295;7504371;-36
2023/08/17 10:17:53;;;;;;;6.30;5.10;;;;;;;-128.00;-1.00;-1.00;18464;295;7505439;-33
2023/08/17 10:20:32;;;;;;;5.10;2.70;;;;;;;-128.00;-1.00;-1.00;18452;295;7506449;-32
2023/08/17 10:23:15;;;;;;;2.40;2.20;;;;;;;-128.00;-1.00;-1.00;18468;295;7504170;-36
2023/08/17 10:25:55;;;;;;;4.70;4.30;;;;;;;-128.00;-1.00;-1.00;18468;306;7504740;-32
2023/08/17 10:28:34;;;;;;;8.30;2.80;;;;;;;-128.00;-1.00;-1.00;18472;295;7506037;-32
2023/08/17 10:31:13;;;;;;;4.40;3.90;;;;;;;-128.00;-1.00;-1.00;18491;295;7504452;-32
2023/08/17 10:33:52;;;;;;;4.20;3.90;;;;;;;-128.00;-1.00;-1.00;18454;295;7505162;-33
2023/08/17 10:36:31;;;;;;;5.00;4.60;;;;;;;-128.00;-1.00;-1.00;18432;295;7505106;-33
2023/08/17 10:39:22;;;;;;;9.70;3.30;;;;;;;-128.00;-1.00;-1.00;18435;295;7505387;-32
2023/08/17 10:42:01;;;;;;;;;;;;;;;-128.00;-1.00;-1.00;18442;295;7504335;-32
2023/08/17 10:44:47;;;;;;;2.60;2.40;;;;;;;-128.00;-1.00;-1.00;18467;295;7504298;-32
2023/08/17 10:47:28;;;;;;;3.60;3.30;;;;;;;-128.00;-1.00;-1.00;18476;295;7504658;-33
2023/08/17 10:50:21;;;;;;;4.70;4.40;;;;;;;-128.00;-1.00;-1.00;18453;299;7504814;-32
2023/08/17 10:53:12;;;;;;;3.90;3.60;;;;;;;-128.00;-1.00;-1.00;18461;295;7504802;-32
2023/08/17 10:55:52;;;;;;;;;;;;;;;-128.00;-1.00;-1.00;18467;295;7505371;-32
2023/08/17 10:58:32;;;;;;;4.70;2.80;;;;;;;-128.00;-1.00;-1.00;18469;295;7504095;-32
2023/08/17 11:01:11;;;;;;;8.20;3.90;;;;;;;-128.00;-1.00;-1.00;18464;295;7505320;-32
2023/08/17 11:04:08;;;;;;;4.20;3.60;;;;;;;-128.00;-1.00;-1.00;18464;295;7504540;-32
2023/08/17 11:07:00;;;;;;;4.10;3.70;;;;;;;-128.00;-1.00;-1.00;18507;295;7505023;-36
2023/08/17 11:09:41;;;;;;;4.00;3.60;;;;;;;-128.00;-1.00;-1.00;18493;347;7507593;-36
2023/08/17 11:12:26;;;;;;;2.40;2.20;;;;;;;-128.00;-1.00;-1.00;18462;295;7504715;-36
2023/08/17 11:15:06;;;;;;;3.60;3.30;;;;;;;-128.00;-1.00;-1.00;18482;295;7505320;-36
2023/08/17 11:17:33;;;;;;;6.70;3.90;;;;;;;-128.00;-1.00;-1.00;18463;295;7504525;-35
2023/08/17 11:20:12;;;;;;;4.10;3.40;;;;;;;-128.00;-1.00;-1.00;18461;295;7506023;-36
2023/08/17 11:22:51;;;;;;;4.20;3.10;;;;;;;-128.00;-1.00;-1.00;18461;295;7504799;-32
2023/08/17 11:25:31;;;;;;;3.30;3.00;;;;;;;-128.00;-1.00;-1.00;18489;319;7504666;-36
2023/08/17 11:28:10;;;;;;;6.20;2.50;;;;;;;-128.00;-1.00;-1.00;18509;295;7506197;-32
2023/08/17 11:30:39;;;;;;;2.70;2.50;;;;;;;-128.00;-1.00;-1.00;18462;295;7505118;-36
2023/08/17 11:33:19;;;;;;;4.20;2.30;;;;;;;-128.00;-1.00;-1.00;18429;295;7505165;-36
2023/08/17 11:35:58;;;;;;;3.50;2.90;;;;;;;-128.00;-1.00;-1.00;18453;323;7505645;-32
2023/08/17 11:38:25;;;;;;;4.50;3.70;;;;;;;-128.00;-1.00;-1.00;18483;295;7504662;-32
2023/08/17 11:41:04;;;;;;;4.60;4.20;;;;;;;-128.00;-1.00;-1.00;18470;347;7505072;-32
2023/08/17 11:43:43;;;;;;;2.80;2.20;;;;;;;-128.00;-1.00;-1.00;18478;287;7504961;-32
2023/08/17 11:46:25;;;;;;;4.30;3.60;;;;;;;-128.00;-1.00;-1.00;18507;335;7505329;-36
2023/08/17 11:49:04;;;;;;;3.90;2.90;;;;;;;-128.00;-1.00;-1.00;18465;295;7506802;-32
2023/08/17 11:51:44;;;;;;;3.50;2.20;;;;;;;-128.00;-1.00;-1.00;18464;335;7504914;-30
2023/08/17 11:54:24;;;;;;;3.80;3.20;;;;;;;-128.00;-1.00;-1.00;18474;335;7505288;-36
2023/08/17 11:57:03;;;;;;;3.50;3.20;;;;;;;-128.00;-1.00;-1.00;18480;346;7504874;-36
2023/08/17 11:59:42;;;;;;;4.90;3.50;;;;;;;-128.00;-1.00;-1.00;18484;347;7505249;-33
2023/08/17 12:02:23;;;;;;;2.80;2.60;;;;;;;-128.00;-1.00;-1.00;18484;295;7506013;-36
2023/08/17 12:04:54;;;;;;;2.20;2.00;;;;;;;-128.00;-1.00;-1.00;18471;339;7505781;-36
2023/08/17 12:07:33;;;;;;;5.20;2.90;;;;;;;-128.00;-1.00;-1.00;18449;300;7504651;-36
2023/08/17 12:10:12;;;;;;;3.60;2.60;;;;;;;-128.00;-1.00;-1.00;18460;295;7506061;-33
2023/08/17 12:12:51;;;;;;;4.70;3.20;;;;;;;-128.00;-1.00;-1.00;18471;346;7505621;-36
2023/08/17 12:15:17;;;;;;;3.70;2.80;;;;;;;-128.00;-1.00;-1.00;18482;295;7505404;-32
2023/08/17 12:17:47;;;;;;;1.90;1.70;;;;;;;-128.00;-1.00;-1.00;18508;295;7504471;-36
2023/08/17 12:20:17;;;;;;;6.30;2.80;;;;;;;-128.00;-1.00;-1.00;18476;295;7506363;-32
2023/08/17 12:22:42;;;;;;;;;;;;;;;-128.00;-1.00;-1.00;18516;295;7504803;-32
2023/08/17 12:25:09;;;;;;;4.20;3.20;;;;;;;-128.00;-1.00;-1.00;18876;295;7505107;-33
2023/08/17 12:27:36;;;;;;;3.70;3.00;;;;;;;-128.00;-1.00;-1.00;18485;287;7505291;-32
2023/08/17 12:30:02;;;;;;;3.20;3.00;;;;;;;-128.00;-1.00;-1.00;18485;295;7505001;-36
2023/08/17 12:32:28;;;;;;;3.90;3.00;;;;;;;-128.00;-1.00;-1.00;18477;295;7504470;-32
2023/08/17 13:15:41;;;;;;;14.70;4.40;;;;;;;-95.71;7.62;19931.90;19593;295;8046149;-36
2023/08/17 13:18:08;;;;;;;17.10;3.40;;;;;;;-128.00;-1.00;-1.00;18081;295;7504675;-36